Terminal Aerodrome Forecast
Issued by NWS

Home | Current Version | Previous Version | Text Only | Print | Product List | Glossary Off
Versions: 1 2 3 4 5 6 7 8 9 10 11 12 13

000
FTUS43 KGRB 251700
TAFMTW
TAF
KMTW 251721Z 2518/2618 35004KT P6SM SCT040 BKN100
     FM252200 02005KT P6SM SCT040 BKN080
      TEMPO 2604/2608 5SM -SN BKN025
     FM261000 36006KT P6SM SCT035 BKN100
     FM261500 34010KT P6SM SCT100 BKN200=

USA.gov is the U.S. government's official web portal to all federal, state and local government web resources and services.